sensor_id;sensor_type;location;lat;lon;timestamp;pressure;altitude;pressure_sealevel;temperature;humidity
80640;BME280;69992;60.170;24.692;2024-01-15T00:00:46;98404.86;;;-11.90;30.96
80640;BME280;69992;60.170;24.692;2024-01-15T00:03:11;98404.79;;;-9.81;30.86
80640;BME280;69992;60.170;24.692;2024-01-15T00:05:40;98404.61;;;-10.86;30.89
80640;BME280;69992;60.170;24.692;2024-01-15T00:08:02;98399.02;;;-9.92;30.91
80640;BME280;69992;60.170;24.692;2024-01-15T00:10:27;98394.35;;;-10.90;30.92
80640;BME280;69992;60.170;24.692;2024-01-15T00:12:53;98390.65;;;-11.88;30.93
80640;BME280;69992;60.170;24.692;2024-01-15T00:15:19;98393.79;;;-9.90;30.94
80640;BME280;69992;60.170;24.692;2024-01-15T00:17:47;98392.92;;;-11.82;30.96
80640;BME280;69992;60.170;24.692;2024-01-15T00:20:10;98393.41;;;-11.74;30.93
80640;BME280;69992;60.170;24.692;2024-01-15T00:22:35;98390.82;;;-11.72;30.92
80640;BME280;69992;60.170;24.692;2024-01-15T00:25:01;98388.75;;;-9.77;30.92
80640;BME280;69992;60.170;24.692;2024-01-15T00:27:27;98384.19;;;-10.75;30.92
80640;BME280;69992;60.170;24.692;2024-01-15T00:29:52;98379.94;;;-10.83;30.91
80640;BME280;69992;60.170;24.692;2024-01-15T00:32:17;98374.66;;;-10.98;30.96
80640;BME280;69992;60.170;24.692;2024-01-15T00:34:43;98370.87;;;-11.11;31.00
80640;BME280;69992;60.170;24.692;2024-01-15T00:37:09;98367.95;;;-11.14;31.02
80640;BME280;69992;60.170;24.692;2024-01-15T00:39:37;98364.16;;;-11.11;31.04
80640;BME280;69992;60.170;24.692;2024-01-15T00:41:59;98363.69;;;-11.04;31.04
80640;BME280;69992;60.170;24.692;2024-01-15T00:44:25;98363.71;;;-10.02;31.02
80640;BME280;69992;60.170;24.692;2024-01-15T00:46:50;98362.59;;;-11.98;31.03
80640;BME280;69992;60.170;24.692;2024-01-15T00:49:16;98361.09;;;-9.95;31.02
80640;BME280;69992;60.170;24.692;2024-01-15T00:51:41;98359.73;;;-10.90;31.03
80640;BME280;69992;60.170;24.692;2024-01-15T00:54:06;98359.11;;;-10.83;31.02
80640;BME280;69992;60.170;24.692;2024-01-15T00:56:32;98355.92;;;-9.75;30.98
80640;BME280;69992;60.170;24.692;2024-01-15T00:58:57;98348.87;;;-10.73;30.99
80640;BME280;69992;60.170;24.692;2024-01-15T01:01:23;98347.29;;;-10.70;31.00
80640;BME280;69992;60.170;24.692;2024-01-15T01:03:48;98342.46;;;-10.72;31.02
80640;BME280;69992;60.170;24.692;2024-01-15T01:06:14;98338.98;;;-10.67;31.02
80640;BME280;69992;60.170;24.692;2024-01-15T01:08:39;98338.26;;;-10.69;31.03
80640;BME280;69992;60.170;24.692;2024-01-15T01:11:05;98336.18;;;-10.73;31.05
80640;BME280;69992;60.170;24.692;2024-01-15T01:13:31;98338.14;;;-9.76;31.04
80640;BME280;69992;60.170;24.692;2024-01-15T01:15:56;98339.12;;;-10.87;31.04
80640;BME280;69992;60.170;24.692;2024-01-15T01:18:22;98336.24;;;-10.89;31.07
80640;BME280;69992;60.170;24.692;2024-01-15T01:20:47;98339.75;;;-10.87;31.04
80640;BME280;69992;60.170;24.692;2024-01-15T01:23:13;98339.09;;;-10.93;31.05
80640;BME280;69992;60.170;24.692;2024-01-15T01:25:38;98337.77;;;-9.96;31.04
80640;BME280;69992;60.170;24.692;2024-01-15T01:28:05;98338.91;;;-10.96;31.05
80640;BME280;69992;60.170;24.692;2024-01-15T01:30:29;98334.67;;;-10.94;31.04
80640;BME280;69992;60.170;24.692;2024-01-15T01:32:55;98332.07;;;-9.99;31.07
80640;BME280;69992;60.170;24.692;2024-01-15T01:35:20;98328.27;;;-10.91;31.06
80640;BME280;69992;60.170;24.692;2024-01-15T01:37:46;98329.26;;;-9.94;31.07
80640;BME280;69992;60.170;24.692;2024-01-15T01:40:11;98326.60;;;-10.91;31.05
80640;BME280;69992;60.170;24.692;2024-01-15T01:42:36;98325.18;;;-11.95;31.06
80640;BME280;69992;60.170;24.692;2024-01-15T01:45:01;98320.83;;;-10.96;31.08
80640;BME280;69992;60.170;24.692;2024-01-15T01:47:27;98317.63;;;-10.93;31.07
80640;BME280;69992;60.170;24.692;2024-01-15T01:49:52;98316.83;;;-10.93;31.06
80640;BME280;69992;60.170;24.692;2024-01-15T01:52:21;98316.25;;;-10.87;31.06
80640;BME280;69992;60.170;24.692;2024-01-15T01:54:43;98311.93;;;-10.79;31.07
80640;BME280;69992;60.170;24.692;2024-01-15T01:57:09;98307.91;;;-10.72;31.04
80640;BME280;69992;60.170;24.692;2024-01-15T01:59:35;98307.12;;;-10.72;31.02
80640;BME280;69992;60.170;24.692;2024-01-15T02:02:00;98305.51;;;-10.77;31.02
80640;BME280;69992;60.170;24.692;2024-01-15T02:04:25;98307.27;;;-11.72;31.02
80640;BME280;69992;60.170;24.692;2024-01-15T02:06:51;98307.73;;;-9.72;31.01
80640;BME280;69992;60.170;24.692;2024-01-15T02:09:17;98310.52;;;-10.68;31.00
80640;BME280;69992;60.170;24.692;2024-01-15T02:11:42;98310.40;;;-11.68;31.02
80640;BME280;69992;60.170;24.692;2024-01-15T02:14:08;98309.79;;;-9.73;31.02
80640;BME280;69992;60.170;24.692;2024-01-15T02:16:33;98309.51;;;-10.72;31.03
80640;BME280;69992;60.170;24.692;2024-01-15T02:18:59;98310.93;;;-10.74;31.08
80640;BME280;69992;60.170;24.692;2024-01-15T02:21:24;98309.70;;;-9.68;31.05
80640;BME280;69992;60.170;24.692;2024-01-15T02:23:49;98312.67;;;-9.67;31.04
80640;BME280;69992;60.170;24.692;2024-01-15T02:26:15;98311.88;;;-10.69;31.05
80640;BME280;69992;60.170;24.692;2024-01-15T02:28:40;98310.69;;;-11.76;31.07
80640;BME280;69992;60.170;24.692;2024-01-15T02:31:06;98312.37;;;-10.83;31.10
80640;BME280;69992;60.170;24.692;2024-01-15T02:33:32;98314.11;;;-10.91;31.10
80640;BME280;69992;60.170;24.692;2024-01-15T02:35:57;98311.60;;;-9.99;31.14
80640;BME280;69992;60.170;24.692;2024-01-15T02:38:23;98311.93;;;-10.92;31.09
80640;BME280;69992;60.170;24.692;2024-01-15T02:40:50;98309.94;;;-10.89;31.08
80640;BME280;69992;60.170;24.692;2024-01-15T02:43:14;98308.38;;;-9.84;31.06
80640;BME280;69992;60.170;24.692;2024-01-15T02:45:40;98309.09;;;-10.76;31.06
80640;BME280;69992;60.170;24.692;2024-01-15T02:48:06;98310.76;;;-9.74;31.06
80640;BME280;69992;60.170;24.692;2024-01-15T02:50:30;98309.21;;;-9.74;31.05
80640;BME280;69992;60.170;24.692;2024-01-15T02:52:56;98309.62;;;-10.69;31.06
80640;BME280;69992;60.170;24.692;2024-01-15T02:55:21;98311.93;;;-10.67;31.05
80640;BME280;69992;60.170;24.692;2024-01-15T02:57:46;98312.66;;;-10.62;31.05
80640;BME280;69992;60.170;24.692;2024-01-15T03:00:12;98312.43;;;-11.58;31.05
80640;BME280;69992;60.170;24.692;2024-01-15T03:02:37;98311.92;;;-10.59;31.07
80640;BME280;69992;60.170;24.692;2024-01-15T03:05:01;98311.45;;;-11.63;31.05
80640;BME280;69992;60.170;24.692;2024-01-15T03:07:29;98311.55;;;-9.72;31.07
80640;BME280;69992;60.170;24.692;2024-01-15T03:09:52;98309.61;;;-10.72;31.10
80640;BME280;69992;60.170;24.692;2024-01-15T03:12:18;98310.73;;;-10.68;31.07
80640;BME280;69992;60.170;24.692;2024-01-15T03:14:43;98310.82;;;-11.65;31.07
80640;BME280;69992;60.170;24.692;2024-01-15T03:17:09;98309.53;;;-10.81;31.07
80640;BME280;69992;60.170;24.692;2024-01-15T03:19:34;98312.52;;;-11.86;31.09
80640;BME280;69992;60.170;24.692;2024-01-15T03:21:59;98314.69;;;-10.95;31.12
80640;BME280;69992;60.170;24.692;2024-01-15T03:24:24;98314.49;;;-9.93;31.11
80640;BME280;69992;60.170;24.692;2024-01-15T03:26:49;98313.35;;;-10.94;31.08
80640;BME280;69992;60.170;24.692;2024-01-15T03:29:15;98312.51;;;-10.07;31.12
80640;BME280;69992;60.170;24.692;2024-01-15T03:31:40;98311.76;;;-11.08;31.11
80640;BME280;69992;60.170;24.692;2024-01-15T03:34:06;98309.25;;;-12.06;31.11
80640;BME280;69992;60.170;24.692;2024-01-15T03:36:32;98306.44;;;-12.04;31.11
80640;BME280;69992;60.170;24.692;2024-01-15T03:38:57;98301.38;;;-11.01;31.10
80640;BME280;69992;60.170;24.692;2024-01-15T03:41:23;98299.81;;;-10.96;31.08
80640;BME280;69992;60.170;24.692;2024-01-15T03:43:48;98296.79;;;-10.03;31.10
80640;BME280;69992;60.170;24.692;2024-01-15T03:46:13;98296.80;;;-11.93;31.08
80640;BME280;69992;60.170;24.692;2024-01-15T03:48:38;98293.27;;;-10.94;31.07
80640;BME280;69992;60.170;24.692;2024-01-15T03:51:04;98287.82;;;-10.95;31.05
80640;BME280;69992;60.170;24.692;2024-01-15T03:53:30;98285.80;;;-9.97;31.06
80640;BME280;69992;60.170;24.692;2024-01-15T03:55:56;98285.06;;;-10.84;31.01
80640;BME280;69992;60.170;24.692;2024-01-15T03:58:21;98285.51;;;-10.86;31.01
80640;BME280;69992;60.170;24.692;2024-01-15T04:00:46;98284.16;;;-10.88;31.03
80640;BME280;69992;60.170;24.692;2024-01-15T04:03:12;98285.92;;;-10.90;31.04
80640;BME280;69992;60.170;24.692;2024-01-15T04:05:38;98284.01;;;-10.92;31.03
80640;BME280;69992;60.170;24.692;2024-01-15T04:08:03;98283.82;;;-11.90;31.02
80640;BME280;69992;60.170;24.692;2024-01-15T04:10:27;98284.68;;;-9.98;31.03
80640;BME280;69992;60.170;24.692;2024-01-15T04:12:53;98287.87;;;-11.94;31.03
80640;BME280;69992;60.170;24.692;2024-01-15T04:15:18;98285.59;;;-10.00;31.03
80640;BME280;69992;60.170;24.692;2024-01-15T04:17:44;98285.63;;;-10.99;31.04
80640;BME280;69992;60.170;24.692;2024-01-15T04:20:10;98287.22;;;-9.96;31.01
80640;BME280;69992;60.170;24.692;2024-01-15T04:22:36;98287.63;;;-11.92;30.99
80640;BME280;69992;60.170;24.692;2024-01-15T04:25:01;98284.92;;;-11.07;31.01
80640;BME280;69992;60.170;24.692;2024-01-15T04:27:27;98281.71;;;-10.25;31.01
80640;BME280;69992;60.170;24.692;2024-01-15T04:29:52;98279.89;;;-11.49;31.06
80640;BME280;69992;60.170;24.692;2024-01-15T04:32:17;98276.11;;;-11.64;31.10
80640;BME280;69992;60.170;24.692;2024-01-15T04:34:43;98273.65;;;-10.75;31.10
80640;BME280;69992;60.170;24.692;2024-01-15T04:37:09;98276.10;;;-10.72;31.09
80640;BME280;69992;60.170;24.692;2024-01-15T04:39:34;98277.97;;;-11.76;31.08
80640;BME280;69992;60.170;24.692;2024-01-15T04:42:00;98276.36;;;-10.98;31.12
80640;BME280;69992;60.170;24.692;2024-01-15T04:44:25;98271.88;;;-11.06;31.15
80640;BME280;69992;60.170;24.692;2024-01-15T04:46:50;98272.28;;;-11.06;31.16
80640;BME280;69992;60.170;24.692;2024-01-15T04:49:16;98272.70;;;-11.07;31.14
80640;BME280;69992;60.170;24.692;2024-01-15T04:51:42;98274.73;;;-11.99;31.12
80640;BME280;69992;60.170;24.692;2024-01-15T04:54:07;98274.25;;;-11.97;31.10
80640;BME280;69992;60.170;24.692;2024-01-15T04:56:33;98270.43;;;-10.96;31.08
80640;BME280;69992;60.170;24.692;2024-01-15T04:58:58;98270.84;;;-12.02;31.07
80640;BME280;69992;60.170;24.692;2024-01-15T05:01:24;98269.26;;;-11.02;31.08
80640;BME280;69992;60.170;24.692;2024-01-15T05:03:53;98272.95;;;-10.98;31.08
80640;BME280;69992;60.170;24.692;2024-01-15T05:06:15;98269.75;;;-10.92;31.06
80640;BME280;69992;60.170;24.692;2024-01-15T05:08:41;98269.59;;;-11.88;31.04
80640;BME280;69992;60.170;24.692;2024-01-15T05:11:06;98270.76;;;-10.88;31.03
80640;BME280;69992;60.170;24.692;2024-01-15T05:13:32;98270.79;;;-10.91;31.01
80640;BME280;69992;60.170;24.692;2024-01-15T05:15:57;98271.76;;;-10.93;31.03
80640;BME280;69992;60.170;24.692;2024-01-15T05:18:23;98274.10;;;-10.90;31.02
80640;BME280;69992;60.170;24.692;2024-01-15T05:20:49;98272.81;;;-10.93;30.98
80640;BME280;69992;60.170;24.692;2024-01-15T05:23:14;98274.97;;;-10.97;30.98
80640;BME280;69992;60.170;24.692;2024-01-15T05:25:39;98276.89;;;-11.04;31.00
80640;BME280;69992;60.170;24.692;2024-01-15T05:28:08;98279.60;;;-11.09;30.97
80640;BME280;69992;60.170;24.692;2024-01-15T05:30:30;98279.69;;;-11.22;30.98
80640;BME280;69992;60.170;24.692;2024-01-15T05:32:56;98281.05;;;-11.26;31.01
80640;BME280;69992;60.170;24.692;2024-01-15T05:35:21;98282.06;;;-11.32;30.99
80640;BME280;69992;60.170;24.692;2024-01-15T05:37:47;98282.64;;;-11.56;31.01
80640;BME280;69992;60.170;24.692;2024-01-15T05:40:12;98286.77;;;-11.55;31.02
80640;BME280;69992;60.170;24.692;2024-01-15T05:42:38;98285.62;;;-11.57;31.02
80640;BME280;69992;60.170;24.692;2024-01-15T05:45:05;98280.92;;;-11.59;31.01
80640;BME280;69992;60.170;24.692;2024-01-15T05:47:29;98282.54;;;-11.57;31.01
80640;BME280;69992;60.170;24.692;2024-01-15T05:49:54;98281.72;;;-11.57;30.99
80640;BME280;69992;60.170;24.692;2024-01-15T05:52:19;98284.41;;;-11.54;30.99
80640;BME280;69992;60.170;24.692;2024-01-15T05:54:45;98283.19;;;-9.64;30.95
80640;BME280;69992;60.170;24.692;2024-01-15T05:57:10;98287.30;;;-11.69;31.00
80640;BME280;69992;60.170;24.692;2024-01-15T05:59:35;98288.63;;;-12.67;30.99
80640;BME280;69992;60.170;24.692;2024-01-15T06:02:00;98291.81;;;-10.79;30.97
80640;BME280;69992;60.170;24.692;2024-01-15T06:04:26;98292.39;;;-11.84;31.02
80640;BME280;69992;60.170;24.692;2024-01-15T06:06:51;98291.59;;;-11.82;31.02
80640;BME280;69992;60.170;24.692;2024-01-15T06:09:17;98290.40;;;-11.82;31.02
80640;BME280;69992;60.170;24.692;2024-01-15T06:11:42;98290.30;;;-11.02;30.99
80640;BME280;69992;60.170;24.692;2024-01-15T06:14:07;98286.28;;;-12.22;31.03
80640;BME280;69992;60.170;24.692;2024-01-15T06:16:34;98284.69;;;-12.29;30.98
80640;BME280;69992;60.170;24.692;2024-01-15T06:18:59;98285.24;;;-12.40;31.02
80640;BME280;69992;60.170;24.692;2024-01-15T06:21:24;98288.76;;;-12.53;31.03
80640;BME280;69992;60.170;24.692;2024-01-15T06:23:50;98292.63;;;-12.61;31.06
80640;BME280;69992;60.170;24.692;2024-01-15T06:26:15;98291.53;;;-12.63;31.06
80640;BME280;69992;60.170;24.692;2024-01-15T06:28:40;98293.42;;;-12.65;31.06
80640;BME280;69992;60.170;24.692;2024-01-15T06:31:06;98294.54;;;-11.72;31.06
80640;BME280;69992;60.170;24.692;2024-01-15T06:33:35;98297.72;;;-11.68;31.06
80640;BME280;69992;60.170;24.692;2024-01-15T06:35:57;98295.46;;;-12.55;31.02
80640;BME280;69992;60.170;24.692;2024-01-15T06:38:23;98295.64;;;-12.48;30.97
80640;BME280;69992;60.170;24.692;2024-01-15T06:40:48;98297.22;;;-12.49;30.97
80640;BME280;69992;60.170;24.692;2024-01-15T06:43:14;98300.59;;;-12.58;30.97
80640;BME280;69992;60.170;24.692;2024-01-15T06:45:39;98302.26;;;-12.58;30.96
80640;BME280;69992;60.170;24.692;2024-01-15T06:48:05;98303.65;;;-10.67;30.94
80640;BME280;69992;60.170;24.692;2024-01-15T06:50:30;98305.45;;;-11.69;30.92
80640;BME280;69992;60.170;24.692;2024-01-15T06:52:55;98304.88;;;-12.78;30.98
80640;BME280;69992;60.170;24.692;2024-01-15T06:55:21;98306.27;;;-12.81;30.97
80640;BME280;69992;60.170;24.692;2024-01-15T06:57:46;98309.92;;;-11.01;30.96
80640;BME280;69992;60.170;24.692;2024-01-15T07:00:13;98310.17;;;-11.13;30.98
80640;BME280;69992;60.170;24.692;2024-01-15T07:02:38;98310.34;;;-13.10;30.99
80640;BME280;69992;60.170;24.692;2024-01-15T07:05:03;98310.96;;;-13.13;30.98
80640;BME280;69992;60.170;24.692;2024-01-15T07:07:28;98311.29;;;-12.12;30.98
80640;BME280;69992;60.170;24.692;2024-01-15T07:09:57;98312.62;;;-12.02;30.95
80640;BME280;69992;60.170;24.692;2024-01-15T07:12:19;98314.71;;;-12.99;30.90
80640;BME280;69992;60.170;24.692;2024-01-15T07:14:44;98314.28;;;-11.09;30.91
80640;BME280;69992;60.170;24.692;2024-01-15T07:17:10;98312.29;;;-11.09;30.89
80640;BME280;69992;60.170;24.692;2024-01-15T07:19:35;98312.93;;;-13.03;30.86
80640;BME280;69992;60.170;24.692;2024-01-15T07:22:01;98312.71;;;-13.05;30.84
80640;BME280;69992;60.170;24.692;2024-01-15T07:24:26;98311.60;;;-11.34;30.82
80640;BME280;69992;60.170;24.692;2024-01-15T07:26:51;98311.60;;;-12.51;30.87
80640;BME280;69992;60.170;24.692;2024-01-15T07:29:17;98310.55;;;-12.62;30.90
80640;BME280;69992;60.170;24.692;2024-01-15T07:31:48;98313.20;;;-12.61;30.92
80640;BME280;69992;60.170;24.692;2024-01-15T07:34:11;98308.49;;;-11.81;30.91
80640;BME280;69992;60.170;24.692;2024-01-15T07:36:34;98312.72;;;-12.76;30.93
80640;BME280;69992;60.170;24.692;2024-01-15T07:38:59;98310.59;;;-13.73;30.89
80640;BME280;69992;60.170;24.692;2024-01-15T07:41:24;98314.00;;;-13.78;30.90
80640;BME280;69992;60.170;24.692;2024-01-15T07:43:50;98314.37;;;-12.79;30.89
80640;BME280;69992;60.170;24.692;2024-01-15T07:46:16;98316.30;;;-12.89;30.87
80640;BME280;69992;60.170;24.692;2024-01-15T07:48:41;98319.98;;;-11.98;30.92
80640;BME280;69992;60.170;24.692;2024-01-15T07:51:07;98318.06;;;-13.02;30.88
80640;BME280;69992;60.170;24.692;2024-01-15T07:53:33;98315.49;;;-12.22;30.93
80640;BME280;69992;60.170;24.692;2024-01-15T07:55:58;98315.49;;;-13.30;30.97
80640;BME280;69992;60.170;24.692;2024-01-15T07:58:24;98314.78;;;-12.28;30.93
80640;BME280;69992;60.170;24.692;2024-01-15T08:00:49;98315.16;;;-12.24;30.95
80640;BME280;69992;60.170;24.692;2024-01-15T08:03:15;98319.29;;;-13.31;30.94
80640;BME280;69992;60.170;24.692;2024-01-15T08:05:40;98320.51;;;-12.33;30.97
80640;BME280;69992;60.170;24.692;2024-01-15T08:08:06;98320.52;;;-13.28;30.93
80640;BME280;69992;60.170;24.692;2024-01-15T08:10:34;98315.92;;;-12.35;30.92
80640;BME280;69992;60.170;24.692;2024-01-15T08:12:56;98318.24;;;-12.39;30.90
80640;BME280;69992;60.170;24.692;2024-01-15T08:15:22;98320.04;;;-12.54;30.95
80640;BME280;69992;60.170;24.692;2024-01-15T08:17:47;98316.58;;;-13.53;30.95
80640;BME280;69992;60.170;24.692;2024-01-15T08:20:12;98318.10;;;-12.60;30.91
80640;BME280;69992;60.170;24.692;2024-01-15T08:22:41;98316.07;;;-12.79;30.92
80640;BME280;69992;60.170;24.692;2024-01-15T08:25:04;98315.62;;;-12.88;30.98
80640;BME280;69992;60.170;24.692;2024-01-15T08:27:29;98317.28;;;-12.74;30.96
80640;BME280;69992;60.170;24.692;2024-01-15T08:29:53;98314.89;;;-12.65;30.95
80640;BME280;69992;60.170;24.692;2024-01-15T08:32:19;98313.45;;;-12.55;30.91
80640;BME280;69992;60.170;24.692;2024-01-15T08:34:47;98316.63;;;-12.41;30.91
80640;BME280;69992;60.170;24.692;2024-01-15T08:37:10;98317.34;;;-12.43;30.86
80640;BME280;69992;60.170;24.692;2024-01-15T08:39:36;98318.11;;;-14.46;30.84
80640;BME280;69992;60.170;24.692;2024-01-15T08:42:01;98318.17;;;-11.70;30.85
80640;BME280;69992;60.170;24.692;2024-01-15T08:44:26;98320.17;;;-11.78;30.92
80640;BME280;69992;60.170;24.692;2024-01-15T08:46:51;98318.55;;;-12.77;30.91
80640;BME280;69992;60.170;24.692;2024-01-15T08:49:17;98321.82;;;-12.84;30.90
80640;BME280;69992;60.170;24.692;2024-01-15T08:51:42;98318.81;;;-12.91;30.95
80640;BME280;69992;60.170;24.692;2024-01-15T08:54:07;98320.85;;;-12.77;30.91
80640;BME280;69992;60.170;24.692;2024-01-15T08:56:33;98319.99;;;-12.70;30.87
80640;BME280;69992;60.170;24.692;2024-01-15T08:59:01;98320.81;;;-12.73;30.90
80640;BME280;69992;60.170;24.692;2024-01-15T09:01:23;98321.38;;;-12.62;30.88
80640;BME280;69992;60.170;24.692;2024-01-15T09:03:48;98323.71;;;-12.63;30.83
80640;BME280;69992;60.170;24.692;2024-01-15T09:06:13;98324.47;;;-13.61;30.85
80640;BME280;69992;60.170;24.692;2024-01-15T09:08:39;98322.09;;;-12.72;30.84
80640;BME280;69992;60.170;24.692;2024-01-15T09:11:05;98321.75;;;-12.71;30.85
80640;BME280;69992;60.170;24.692;2024-01-15T09:13:30;98319.48;;;-12.63;30.83
80640;BME280;69992;60.170;24.692;2024-01-15T09:15:55;98321.20;;;-12.69;30.82
80640;BME280;69992;60.170;24.692;2024-01-15T09:18:21;98318.82;;;-12.74;30.86
80640;BME280;69992;60.170;24.692;2024-01-15T09:20:46;98321.59;;;-12.76;30.83
80640;BME280;69992;60.170;24.692;2024-01-15T09:23:12;98323.84;;;-11.93;30.84
80640;BME280;69992;60.170;24.692;2024-01-15T09:25:37;98322.19;;;-13.98;30.87
80640;BME280;69992;60.170;24.692;2024-01-15T09:28:02;98321.75;;;-13.02;30.83
80640;BME280;69992;60.170;24.692;2024-01-15T09:30:27;98318.26;;;-12.17;30.86
80640;BME280;69992;60.170;24.692;2024-01-15T09:32:52;98317.49;;;-13.16;30.87
80640;BME280;69992;60.170;24.692;2024-01-15T09:35:18;98321.09;;;-13.06;30.88
80640;BME280;69992;60.170;24.692;2024-01-15T09:37:43;98320.72;;;-12.97;30.85
80640;BME280;69992;60.170;24.692;2024-01-15T09:40:08;98323.45;;;-12.89;30.83
80640;BME280;69992;60.170;24.692;2024-01-15T09:42:38;98326.22;;;-11.76;30.80
80640;BME280;69992;60.170;24.692;2024-01-15T09:44:58;98328.08;;;-12.67;30.78
80640;BME280;69992;60.170;24.692;2024-01-15T09:47:24;98327.46;;;-12.83;30.75
80640;BME280;69992;60.170;24.692;2024-01-15T09:49:49;98327.28;;;-12.93;30.81
80640;BME280;69992;60.170;24.692;2024-01-15T09:52:15;98325.31;;;-12.96;30.83
80640;BME280;69992;60.170;24.692;2024-01-15T09:54:39;98320.99;;;-12.96;30.82
80640;BME280;69992;60.170;24.692;2024-01-15T09:57:05;98323.62;;;-12.87;30.82
80640;BME280;69992;60.170;24.692;2024-01-15T09:59:34;98324.33;;;-12.83;30.79
80640;BME280;69992;60.170;24.692;2024-01-15T10:01:55;98323.04;;;-12.82;30.77
80640;BME280;69992;60.170;24.692;2024-01-15T10:04:21;98322.12;;;-12.84;30.74
80640;BME280;69992;60.170;24.692;2024-01-15T10:06:47;98322.82;;;-13.06;30.77
80640;BME280;69992;60.170;24.692;2024-01-15T10:09:13;98316.74;;;-13.14;30.80
80640;BME280;69992;60.170;24.692;2024-01-15T10:11:41;98314.42;;;-13.13;30.79
80640;BME280;69992;60.170;24.692;2024-01-15T10:14:03;98312.30;;;-13.26;30.75
80640;BME280;69992;60.170;24.692;2024-01-15T10:16:27;98309.49;;;-13.34;30.77
80640;BME280;69992;60.170;24.692;2024-01-15T10:18:53;98309.79;;;-13.30;30.77
80640;BME280;69992;60.170;24.692;2024-01-15T10:21:18;98306.37;;;-12.51;30.70
80640;BME280;69992;60.170;24.692;2024-01-15T10:23:44;98305.41;;;-13.72;30.81
80640;BME280;69992;60.170;24.692;2024-01-15T10:26:09;98304.54;;;-13.78;30.80
80640;BME280;69992;60.170;24.692;2024-01-15T10:28:34;98305.00;;;-12.91;30.80
80640;BME280;69992;60.170;24.692;2024-01-15T10:31:01;98305.23;;;-15.09;30.50
80640;BME280;69992;60.170;24.692;2024-01-15T10:33:26;98307.01;;;-13.13;30.33
80640;BME280;69992;60.170;24.692;2024-01-15T10:35:51;98306.08;;;-13.56;30.54
80640;BME280;69992;60.170;24.692;2024-01-15T10:38:15;98302.72;;;-12.94;30.62
80640;BME280;69992;60.170;24.692;2024-01-15T10:40:41;98299.70;;;-13.02;30.74
80640;BME280;69992;60.170;24.692;2024-01-15T10:43:06;98299.06;;;-13.93;30.73
80640;BME280;69992;60.170;24.692;2024-01-15T10:45:31;98298.07;;;-13.96;30.75
80640;BME280;69992;60.170;24.692;2024-01-15T10:47:56;98300.97;;;-13.14;30.74
80640;BME280;69992;60.170;24.692;2024-01-15T10:50:22;98301.42;;;-13.14;30.79
80640;BME280;69992;60.170;24.692;2024-01-15T10:52:47;98301.76;;;-13.99;30.77
80640;BME280;69992;60.170;24.692;2024-01-15T10:55:12;98307.63;;;-13.86;30.76
80640;BME280;69992;60.170;24.692;2024-01-15T10:57:37;98307.23;;;-13.89;30.72
80640;BME280;69992;60.170;24.692;2024-01-15T11:00:03;98307.95;;;-13.82;30.76
80640;BME280;69992;60.170;24.692;2024-01-15T11:02:28;98307.74;;;-13.76;30.70
80640;BME280;69992;60.170;24.692;2024-01-15T11:04:53;98301.44;;;-13.79;30.72
80640;BME280;69992;60.170;24.692;2024-01-15T11:07:22;98301.29;;;-11.91;30.72
80640;BME280;69992;60.170;24.692;2024-01-15T11:09:43;98305.72;;;-13.81;30.73
80640;BME280;69992;60.170;24.692;2024-01-15T11:12:19;98303.61;;;-13.85;30.69
80640;BME280;69992;60.170;24.692;2024-01-15T11:14:34;98305.36;;;-12.93;30.72
80640;BME280;69992;60.170;24.692;2024-01-15T11:16:59;98304.40;;;-14.03;30.72
80640;BME280;69992;60.170;24.692;2024-01-15T11:19:24;98303.67;;;-13.13;30.74
80640;BME280;69992;60.170;24.692;2024-01-15T11:21:49;98307.54;;;-14.13;30.69
80640;BME280;69992;60.170;24.692;2024-01-15T11:26:50;98305.92;;;-14.16;30.73
80640;BME280;69992;60.170;24.692;2024-01-15T11:29:06;98305.82;;;-14.23;30.67
80640;BME280;69992;60.170;24.692;2024-01-15T11:33:55;98298.93;;;-14.43;30.70
80640;BME280;69992;60.170;24.692;2024-01-15T11:36:21;98297.94;;;-13.64;30.68
80640;BME280;69992;60.170;24.692;2024-01-15T11:38:46;98297.33;;;-13.90;30.73
80640;BME280;69992;60.170;24.692;2024-01-15T11:41:16;98297.99;;;-13.98;30.74
80640;BME280;69992;60.170;24.692;2024-01-15T11:43:37;98295.18;;;-13.03;30.75
80640;BME280;69992;60.170;24.692;2024-01-15T11:46:02;98297.16;;;-13.06;30.71
80640;BME280;69992;60.170;24.692;2024-01-15T11:48:35;98296.98;;;-15.04;30.73
80640;BME280;69992;60.170;24.692;2024-01-15T11:50:54;98295.48;;;-14.19;30.73
80640;BME280;69992;60.170;24.692;2024-01-15T11:53:27;98294.62;;;-14.18;30.70
80640;BME280;69992;60.170;24.692;2024-01-15T11:55:45;98293.11;;;-13.27;30.71
80640;BME280;69992;60.170;24.692;2024-01-15T11:58:09;98296.19;;;-14.24;30.73
80640;BME280;69992;60.170;24.692;2024-01-15T12:00:34;98292.43;;;-14.25;30.72
80640;BME280;69992;60.170;24.692;2024-01-15T12:02:59;98292.81;;;-13.24;30.73
80640;BME280;69992;60.170;24.692;2024-01-15T12:05:27;98290.78;;;-14.13;30.68
80640;BME280;69992;60.170;24.692;2024-01-15T12:07:50;98289.29;;;-14.12;30.67
80640;BME280;69992;60.170;24.692;2024-01-15T12:10:16;98290.40;;;-13.22;30.67
80640;BME280;69992;60.170;24.692;2024-01-15T12:12:53;98291.32;;;-13.28;30.67
80640;BME280;69992;60.170;24.692;2024-01-15T12:15:06;98286.50;;;-14.23;30.65
80640;BME280;69992;60.170;24.692;2024-01-15T12:17:35;98290.62;;;-14.29;30.62
80640;BME280;69992;60.170;24.692;2024-01-15T12:19:56;98287.34;;;-14.37;30.60
80640;BME280;69992;60.170;24.692;2024-01-15T12:22:21;98290.19;;;-13.46;30.61
80640;BME280;69992;60.170;24.692;2024-01-15T12:24:46;98293.90;;;-14.70;30.59
80640;BME280;69992;60.170;24.692;2024-01-15T12:27:11;98286.88;;;-13.97;30.63
80640;BME280;69992;60.170;24.692;2024-01-15T12:29:38;98286.29;;;-15.03;30.67
80640;BME280;69992;60.170;24.692;2024-01-15T12:32:02;98286.05;;;-14.16;30.64
80640;BME280;69992;60.170;24.692;2024-01-15T12:34:29;98286.22;;;-14.24;30.67